TimePDT,TemperatureF,Dew PointF,Humidity,Sea Level PressureIn,VisibilityMPH,Wind Direction,Wind SpeedMPH,Gust SpeedMPH,PrecipitationIn,Events,Conditions,WindDirDegrees,DateUTC
12:15 AM,53.6,21.2,28,30.12,10.0,West,6.9,-,N/A,,Clear,270,2013-06-15 07:15:00
12:35 AM,51.8,21.2,30,30.13,10.0,WNW,4.6,-,N/A,,Clear,290,2013-06-15 07:35:00
12:55 AM,50.0,21.2,32,30.13,10.0,WNW,9.2,16.1,N/A,,Clear,290,2013-06-15 07:55:00
1:15 AM,50.0,21.2,32,30.12,10.0,West,8.1,16.1,N/A,,Clear,260,2013-06-15 08:15:00
1:35 AM,48.2,21.2,34,30.12,10.0,West,9.2,-,N/A,,Clear,270,2013-06-15 08:35:00
1:55 AM,46.4,21.2,37,30.11,10.0,West,10.4,-,N/A,,Clear,270,2013-06-15 08:55:00
2:15 AM,48.2,21.2,34,30.11,10.0,West,10.4,-,N/A,,Clear,270,2013-06-15 09:15:00
2:35 AM,46.4,23.0,40,30.11,10.0,WNW,4.6,-,N/A,,Clear,290,2013-06-15 09:35:00
2:55 AM,42.8,23.0,46,30.11,10.0,Calm,Calm,-,N/A,,Clear,0,2013-06-15 09:55:00
3:15 AM,42.8,23.0,46,30.11,10.0,NW,3.5,-,N/A,,Clear,310,2013-06-15 10:15:00
3:35 AM,42.8,23.0,46,30.10,10.0,NNW,5.8,-,N/A,,Clear,340,2013-06-15 10:35:00
3:55 AM,42.8,23.0,46,30.10,10.0,West,8.1,-,N/A,,Clear,270,2013-06-15 10:55:00
4:15 AM,41.0,23.0,49,30.10,10.0,West,6.9,-,N/A,,Clear,280,2013-06-15 11:15:00
4:35 AM,42.8,23.0,46,30.11,10.0,West,5.8,-,N/A,,Clear,270,2013-06-15 11:35:00
4:55 AM,41.0,23.0,49,30.11,10.0,WNW,5.8,-,N/A,,Clear,290,2013-06-15 11:55:00
5:15 AM,39.2,21.2,49,30.11,10.0,North,5.8,-,N/A,,Clear,360,2013-06-15 12:15:00
5:35 AM,39.2,21.2,49,30.11,10.0,NNE,5.8,-,N/A,,Clear,20,2013-06-15 12:35:00
5:55 AM,37.4,21.2,52,30.11,10.0,NNW,4.6,-,N/A,,Clear,330,2013-06-15 12:55:00
6:15 AM,41.0,21.2,45,30.12,10.0,NW,4.6,-,N/A,,Clear,320,2013-06-15 13:15:00
6:35 AM,42.8,23.0,46,30.12,10.0,North,6.9,-,N/A,,Clear,350,2013-06-15 13:35:00
6:55 AM,46.4,23.0,40,30.12,10.0,Calm,Calm,-,N/A,,Clear,0,2013-06-15 13:55:00
7:15 AM,50.0,23.0,35,30.12,10.0,Calm,Calm,-,N/A,,Clear,0,2013-06-15 14:15:00
7:35 AM,51.8,23.0,33,30.12,10.0,SE,4.6,-,N/A,,Clear,140,2013-06-15 14:35:00
7:55 AM,53.6,28.4,38,30.12,10.0,SE,5.8,-,N/A,,Clear,130,2013-06-15 14:55:00
8:15 AM,55.4,28.4,36,30.12,10.0,SE,5.8,-,N/A,,Clear,130,2013-06-15 15:15:00
8:35 AM,59.0,26.6,29,30.12,10.0,SE,5.8,-,N/A,,Clear,130,2013-06-15 15:35:00
8:55 AM,60.8,26.6,27,30.13,10.0,SE,3.5,-,N/A,,Clear,140,2013-06-15 15:55:00
9:15 AM,62.6,21.2,20,30.13,10.0,Calm,Calm,-,N/A,,Clear,0,2013-06-15 16:15:00
9:35 AM,66.2,19.4,17,30.12,10.0,Calm,Calm,-,N/A,,Clear,0,2013-06-15 16:35:00
9:55 AM,66.2,17.6,15,30.12,10.0,SE,3.5,-,N/A,,Clear,130,2013-06-15 16:55:00
10:15 AM,68.0,19.4,16,30.12,10.0,Calm,Calm,-,N/A,,Clear,0,2013-06-15 17:15:00
10:35 AM,69.8,19.4,15,30.12,10.0,SE,5.8,-,N/A,,Clear,130,2013-06-15 17:35:00
10:55 AM,69.8,19.4,15,30.12,10.0,SSE,9.2,16.1,N/A,,Clear,150,2013-06-15 17:55:00
11:15 AM,71.6,17.6,13,30.12,10.0,ESE,6.9,-,N/A,,Clear,110,2013-06-15 18:15:00
11:35 AM,71.6,17.6,13,30.12,10.0,ESE,5.8,-,N/A,,Clear,110,2013-06-15 18:35:00
11:55 AM,73.4,17.6,12,30.12,10.0,SE,8.1,-,N/A,,Clear,130,2013-06-15 18:55:00
12:15 PM,75.2,17.6,11,30.11,10.0,ESE,6.9,17.3,N/A,,Clear,110,2013-06-15 19:15:00
12:35 PM,75.2,15.8,11,30.11,10.0,East,10.4,19.6,N/A,,Clear,100,2013-06-15 19:35:00
12:55 PM,75.2,14.0,10,30.11,10.0,Calm,Calm,-,N/A,,Clear,0,2013-06-15 19:55:00
1:15 PM,75.2,15.8,11,30.10,10.0,ESE,11.5,-,N/A,,Clear,120,2013-06-15 20:15:00
1:35 PM,77.0,15.8,10,30.10,10.0,ESE,8.1,-,N/A,,Clear,110,2013-06-15 20:35:00
1:55 PM,78.8,15.8,9,30.10,10.0,North,6.9,16.1,N/A,,Clear,350,2013-06-15 20:55:00
2:15 PM,77.0,15.8,10,30.10,10.0,SE,4.6,16.1,N/A,,Clear,140,2013-06-15 21:15:00
2:35 PM,77.0,23.0,13,30.07,10.0,WSW,21.9,39.1,N/A,,Clear,240,2013-06-15 21:35:00
2:55 PM,77.0,24.8,14,30.09,10.0,West,27.6,34.5,N/A,,Clear,280,2013-06-15 21:55:00
3:15 PM,75.2,24.8,15,30.09,10.0,WNW,23.0,35.7,N/A,,Scattered Clouds,290,2013-06-15 22:15:00
3:35 PM,75.2,24.8,15,30.10,10.0,West,26.5,36.8,N/A,,Clear,280,2013-06-15 22:35:00
3:55 PM,75.2,24.8,15,30.09,10.0,WNW,27.6,39.1,N/A,,Clear,290,2013-06-15 22:55:00
4:15 PM,75.2,24.8,15,30.09,10.0,West,20.7,34.5,N/A,,Clear,280,2013-06-15 23:15:00
4:35 PM,75.2,23.0,14,30.09,10.0,West,12.7,26.5,N/A,,Clear,260,2013-06-15 23:35:00
4:55 PM,75.2,23.0,14,30.09,10.0,SW,15.0,26.5,N/A,,Clear,230,2013-06-15 23:55:00
5:15 PM,75.2,23.0,14,30.08,10.0,SSW,23.0,26.5,N/A,,Clear,210,2013-06-16 00:15:00
5:35 PM,73.4,24.8,16,30.08,10.0,SSW,20.7,28.8,N/A,,Clear,200,2013-06-16 00:35:00
5:55 PM,73.4,24.8,16,30.08,10.0,SSW,19.6,26.5,N/A,,Clear,210,2013-06-16 00:55:00
6:15 PM,71.6,24.8,17,30.08,10.0,SW,21.9,27.6,N/A,,Clear,220,2013-06-16 01:15:00
6:35 PM,71.6,26.6,19,30.09,10.0,SW,23.0,29.9,N/A,,Clear,220,2013-06-16 01:35:00
6:55 PM,69.8,26.6,20,30.09,10.0,SSW,21.9,33.4,N/A,,Clear,210,2013-06-16 01:55:00
7:15 PM,68.0,26.6,21,30.10,10.0,SW,15.0,26.5,N/A,,Clear,220,2013-06-16 02:15:00
7:35 PM,68.0,26.6,21,30.11,10.0,WSW,11.5,19.6,N/A,,Clear,250,2013-06-16 02:35:00
7:55 PM,64.4,24.8,22,30.11,10.0,West,15.0,24.2,N/A,,Clear,270,2013-06-16 02:55:00
8:15 PM,64.4,24.8,22,30.11,10.0,SW,19.6,26.5,N/A,,Clear,220,2013-06-16 03:15:00
8:35 PM,64.4,24.8,22,30.12,10.0,SW,12.7,24.2,N/A,,Clear,230,2013-06-16 03:35:00
8:55 PM,59.0,24.8,27,30.13,10.0,North,4.6,-,N/A,,Clear,350,2013-06-16 03:55:00
9:15 PM,59.0,24.8,27,30.13,10.0,NNE,4.6,-,N/A,,Clear,30,2013-06-16 04:15:00
9:35 PM,55.4,23.0,29,30.14,10.0,North,3.5,-,N/A,,Clear,10,2013-06-16 04:35:00
9:55 PM,53.6,26.6,35,30.15,10.0,Calm,Calm,-,N/A,,Clear,0,2013-06-16 04:55:00
10:15 PM,51.8,24.8,35,30.16,10.0,West,3.5,-,N/A,,Clear,270,2013-06-16 05:15:00
10:35 PM,51.8,24.8,35,30.17,10.0,Calm,Calm,-,N/A,,Clear,0,2013-06-16 05:35:00
10:55 PM,51.8,23.0,33,30.17,10.0,Calm,Calm,-,N/A,,Clear,0,2013-06-16 05:55:00
11:15 PM,50.0,23.0,35,30.17,10.0,Calm,Calm,-,N/A,,Clear,0,2013-06-16 06:15:00
11:35 PM,50.0,23.0,35,30.17,10.0,Calm,Calm,-,N/A,,Clear,0,2013-06-16 06:35:00
11:55 PM,50.0,23.0,35,30.17,10.0,Calm,Calm,-,N/A,,Clear,0,2013-06-16 06:55:00